Time;durP1;ratioP1;P1;durP2;ratioP2;P2;SDS_P1;SDS_P2;PMS_P1;PMS_P2;Temp;Humidity;BMP_temperature;BMP_pressure;BME280_temperature;BME280_humidity;BME280_pressure;Samples;Min_cycle;Max_cycle;Signal;HPM_P1;HPM_P2
2021/09/11 00:00:17;;;;;;;27.77;13.23;;;18.50;99.90;;;;;;4953394;28;20535;-88
2021/09/11 00:02:48;;;;;;;35.30;13.70;;;18.50;99.90;;;;;;4953616;28;20216;-87
2021/09/11 00:05:15;;;;;;;31.23;15.17;;;18.50;99.90;;;;;;4971151;28;20220;-88
2021/09/11 00:07:40;;;;;;;28.17;12.83;;;18.50;99.90;;;;;;4954561;28;20289;-88
2021/09/11 00:10:08;;;;;;;31.20;13.63;;;18.50;99.90;;;;;;4954807;28;20584;-87
2021/09/11 00:12:35;;;;;;;24.00;12.07;;;18.50;99.90;;;;;;4972859;28;20370;-87
2021/09/11 00:15:06;;;;;;;19.53;11.13;;;18.50;99.90;;;;;;4972216;28;20193;-88
2021/09/11 00:17:32;;;;;;;24.27;11.13;;;18.40;99.90;;;;;;4963292;28;20236;-88
2021/09/11 00:19:58;;;;;;;21.83;11.50;;;18.40;99.90;;;;;;4947575;28;20252;-87
2021/09/11 00:22:24;;;;;;;23.07;11.60;;;18.30;99.90;;;;;;4947980;28;21003;-89
2021/09/11 00:24:50;;;;;;;20.10;12.07;;;18.30;99.90;;;;;;4947063;28;20224;-88
2021/09/11 00:27:15;;;;;;;23.90;11.93;;;18.30;99.90;;;;;;4948118;28;20208;-88
2021/09/11 00:29:41;;;;;;;25.83;12.50;;;18.30;99.90;;;;;;4947885;28;20547;-86
2021/09/11 00:32:08;;;;;;;23.17;11.53;;;18.30;99.90;;;;;;4963949;28;20213;-88
2021/09/11 00:34:34;;;;;;;17.43;10.33;;;18.30;99.90;;;;;;4964099;28;20220;-88
2021/09/11 00:37:00;;;;;;;20.83;11.90;;;18.20;99.90;;;;;;4947822;28;20720;-89
2021/09/11 00:39:25;;;;;;;21.20;10.57;;;18.20;99.90;;;;;;4947458;28;20204;-88
2021/09/11 00:41:52;;;;;;;20.97;10.03;;;18.20;99.90;;;;;;4948246;28;20605;-88
2021/09/11 00:44:18;;;;;;;15.50;9.30;;;18.20;99.90;;;;;;4947130;28;20311;-90
2021/09/11 00:46:44;;;;;;;23.37;11.13;;;18.20;99.90;;;;;;4946342;28;20255;-89
2021/09/11 00:49:10;;;;;;;20.83;11.20;;;18.10;99.90;;;;;;4963059;28;20224;-90
2021/09/11 00:51:36;;;;;;;18.30;9.53;;;18.10;99.90;;;;;;4947878;28;20221;-88
2021/09/11 00:54:03;;;;;;;18.97;10.30;;;18.10;99.90;;;;;;4950062;28;20204;-88
2021/09/11 00:56:30;;;;;;;14.10;8.30;;;18.10;99.90;;;;;;4967027;28;20307;-88
2021/09/11 00:58:56;;;;;;;15.30;9.07;;;18.10;99.90;;;;;;4951225;28;20360;-87
2021/09/11 01:01:22;;;;;;;13.10;8.30;;;18.10;99.90;;;;;;4950733;28;20216;-87
2021/09/11 01:03:47;;;;;;;17.50;8.33;;;18.00;99.90;;;;;;4933874;28;20220;-86
2021/09/11 01:06:14;;;;;;;28.37;9.57;;;18.00;99.90;;;;;;4950713;28;20732;-86
2021/09/11 01:08:41;;;;;;;13.93;7.83;;;18.00;99.90;;;;;;4950741;28;20287;-89
2021/09/11 01:11:08;;;;;;;15.27;8.77;;;17.90;99.90;;;;;;4935258;28;20573;-90
2021/09/11 01:13:34;;;;;;;13.37;7.27;;;17.90;99.90;;;;;;4950469;28;20240;-88
2021/09/11 01:16:00;;;;;;;11.50;7.30;;;17.90;99.90;;;;;;4951516;28;20258;-89
2021/09/11 01:18:27;;;;;;;14.73;7.80;;;17.90;99.90;;;;;;4951768;28;20188;-89
2021/09/11 01:20:53;;;;;;;11.43;6.77;;;17.90;99.90;;;;;;4969139;28;20189;-89
2021/09/11 01:23:20;;;;;;;10.37;6.80;;;17.90;99.90;;;;;;4968736;28;20247;-88
2021/09/11 01:25:47;;;;;;;14.53;7.70;;;17.90;99.90;;;;;;4951226;28;20240;-89
2021/09/11 01:28:14;;;;;;;9.50;5.90;;;17.90;99.90;;;;;;4951164;28;20213;-89
2021/09/11 01:30:40;;;;;;;8.77;5.93;;;17.90;99.90;;;;;;4951619;28;20263;-87
2021/09/11 01:33:06;;;;;;;9.20;5.93;;;17.90;99.90;;;;;;4967290;28;20200;-86
2021/09/11 01:35:32;;;;;;;14.60;6.50;;;17.90;99.90;;;;;;4952324;28;20442;-89
2021/09/11 01:37:58;;;;;;;13.60;6.20;;;17.80;99.90;;;;;;4951217;28;21017;-88
2021/09/11 01:40:24;;;;;;;10.20;5.17;;;17.80;99.90;;;;;;4951313;28;20229;-89
2021/09/11 01:42:50;;;;;;;8.43;6.10;;;17.80;99.90;;;;;;4966867;28;20694;-89
2021/09/11 01:45:18;;;;;;;10.40;5.33;;;17.80;99.90;;;;;;4950938;28;20216;-88
2021/09/11 01:47:45;;;;;;;8.47;4.93;;;17.80;99.90;;;;;;4966959;28;20283;-88
2021/09/11 01:50:13;;;;;;;9.47;5.67;;;17.70;99.90;;;;;;4966590;28;20220;-89
2021/09/11 01:52:39;;;;;;;7.67;4.77;;;17.70;99.90;;;;;;4935246;28;20224;-89
2021/09/11 01:55:07;;;;;;;11.77;5.43;;;17.70;99.90;;;;;;4951693;28;20216;-88
2021/09/11 01:57:38;;;;;;;9.50;5.40;;;17.60;99.90;;;;;;4967141;28;20224;-88
2021/09/11 02:00:08;;;;;;;8.83;5.20;;;17.60;99.90;;;;;;4951687;28;20185;-88
2021/09/11 02:02:34;;;;;;;8.57;5.40;;;17.60;99.90;;;;;;4951046;28;20221;-88
2021/09/11 02:05:00;;;;;;;8.90;5.17;;;17.60;99.90;;;;;;4951187;28;20311;-86
2021/09/11 02:07:25;;;;;;;10.20;5.23;;;17.60;99.90;;;;;;4966910;28;20314;-88
2021/09/11 02:09:51;;;;;;;12.57;5.23;;;17.60;99.90;;;;;;4950643;28;20682;-88
2021/09/11 02:12:17;;;;;;;8.30;5.13;;;17.60;99.90;;;;;;4950316;28;20197;-87
2021/09/11 02:14:43;;;;;;;8.07;4.33;;;17.60;99.90;;;;;;4950753;28;20196;-88
2021/09/11 02:17:09;;;;;;;9.67;6.07;;;17.60;99.90;;;;;;4949876;28;21434;-87
2021/09/11 02:19:34;;;;;;;6.63;4.57;;;17.60;99.90;;;;;;4950648;28;20232;-88
2021/09/11 02:22:03;;;;;;;8.90;5.20;;;17.60;99.90;;;;;;4966160;28;20220;-87
2021/09/11 02:24:29;;;;;;;11.23;5.53;;;17.60;99.90;;;;;;4967063;28;20192;-87
2021/09/11 02:26:56;;;;;;;6.53;4.73;;;17.50;99.90;;;;;;4950068;28;20224;-87
2021/09/11 02:29:22;;;;;;;10.27;5.43;;;17.60;99.90;;;;;;4949960;28;20235;-86
2021/09/11 02:31:48;;;;;;;11.30;5.33;;;17.60;99.90;;;;;;4949525;28;20303;-90
2021/09/11 02:34:14;;;;;;;11.03;5.57;;;17.60;99.90;;;;;;4934100;28;20774;-88
2021/09/11 02:36:40;;;;;;;11.03;4.97;;;17.60;99.90;;;;;;4949722;28;20220;-88
2021/09/11 02:39:06;;;;;;;11.03;5.53;;;17.60;99.90;;;;;;4950263;28;20207;-86
2021/09/11 02:41:33;;;;;;;11.93;5.27;;;17.60;99.90;;;;;;4949712;28;20225;-89
2021/09/11 02:44:00;;;;;;;8.60;4.87;;;17.60;99.90;;;;;;4949591;28;20267;-87
2021/09/11 02:46:26;;;;;;;10.23;5.37;;;17.60;99.90;;;;;;4945636;28;20253;-87
2021/09/11 02:48:53;;;;;;;6.90;4.30;;;17.60;99.90;;;;;;4946472;28;20708;-88
2021/09/11 02:51:19;;;;;;;9.77;4.77;;;17.60;99.90;;;;;;4946515;28;20313;-90
2021/09/11 02:53:44;;;;;;;11.83;5.20;;;17.60;99.90;;;;;;4946524;28;20199;-87
2021/09/11 02:56:10;;;;;;;11.40;5.63;;;17.70;99.90;;;;;;4946994;28;20228;-88
2021/09/11 02:58:36;;;;;;;14.73;5.77;;;17.70;99.90;;;;;;4939862;29;20998;-86
2021/09/11 03:01:01;;;;;;;8.63;4.87;;;17.70;99.90;;;;;;4945804;28;20944;-88
2021/09/11 03:03:27;;;;;;;10.33;5.70;;;17.70;99.90;;;;;;4946522;28;20640;-88
2021/09/11 03:05:53;;;;;;;10.57;5.93;;;17.70;99.90;;;;;;4946198;28;20221;-88
2021/09/11 03:08:18;;;;;;;9.50;4.57;;;17.70;99.90;;;;;;4945700;28;20225;-88
2021/09/11 03:10:44;;;;;;;13.83;6.23;;;17.70;99.90;;;;;;4961905;28;20296;-90
2021/09/11 03:13:10;;;;;;;7.30;4.77;;;17.70;99.90;;;;;;4961801;28;20221;-89
2021/09/11 03:15:36;;;;;;;13.73;5.27;;;17.70;99.90;;;;;;4962304;28;20221;-88
2021/09/11 03:18:02;;;;;;;11.63;5.20;;;17.70;99.90;;;;;;4946687;29;21000;-88
2021/09/11 03:20:27;;;;;;;10.93;4.57;;;17.70;99.90;;;;;;4948322;28;20220;-89
2021/09/11 03:22:53;;;;;;;20.10;5.47;;;17.70;99.90;;;;;;4949714;28;20224;-88
2021/09/11 03:25:19;;;;;;;13.83;6.57;;;17.70;99.90;;;;;;4965032;28;20725;-89
2021/09/11 03:27:44;;;;;;;13.23;6.37;;;17.70;99.90;;;;;;4949312;28;20217;-88
2021/09/11 03:30:11;;;;;;;14.03;5.53;;;17.70;99.90;;;;;;4949153;28;20677;-89
2021/09/11 03:32:36;;;;;;;10.37;5.30;;;17.80;99.90;;;;;;4949875;29;20186;-88
2021/09/11 03:35:02;;;;;;;9.30;5.83;;;17.80;99.90;;;;;;4948756;29;20228;-88
2021/09/11 03:37:28;;;;;;;13.57;6.23;;;17.80;99.90;;;;;;4948758;28;20217;-88
2021/09/11 03:39:54;;;;;;;15.77;4.67;;;17.80;99.90;;;;;;4948947;28;21092;-89
2021/09/11 03:42:20;;;;;;;13.83;7.17;;;17.80;99.90;;;;;;4948304;28;20200;-89
2021/09/11 03:44:45;;;;;;;9.80;5.50;;;17.80;99.90;;;;;;4949809;29;20197;-88
2021/09/11 03:47:11;;;;;;;8.87;5.47;;;17.80;99.90;;;;;;4949220;28;20253;-88
2021/09/11 03:49:37;;;;;;;14.40;6.13;;;17.90;99.90;;;;;;4949048;28;20256;-86
2021/09/11 03:52:03;;;;;;;10.77;6.10;;;17.80;99.90;;;;;;4964164;28;20690;-87
2021/09/11 03:54:29;;;;;;;11.60;5.27;;;17.90;99.90;;;;;;4948841;28;20480;-87
2021/09/11 03:56:55;;;;;;;13.33;6.33;;;17.80;99.90;;;;;;4948767;29;20663;-88
2021/09/11 03:59:20;;;;;;;8.60;5.30;;;17.80;99.90;;;;;;4949449;28;20225;-88
2021/09/11 04:01:46;;;;;;;9.13;5.43;;;17.90;99.90;;;;;;4924918;29;20224;-88
2021/09/11 04:04:12;;;;;;;13.33;6.07;;;17.80;99.90;;;;;;4948484;28;20213;-88
2021/09/11 04:06:37;;;;;;;9.40;5.00;;;17.90;99.90;;;;;;4948436;28;20232;-88
2021/09/11 04:09:03;;;;;;;10.57;5.87;;;17.90;99.90;;;;;;4965307;28;20647;-88
2021/09/11 04:11:29;;;;;;;15.80;6.43;;;17.90;99.90;;;;;;4965028;28;20627;-88
2021/09/11 04:13:55;;;;;;;12.10;5.20;;;17.90;99.90;;;;;;4948576;28;20737;-88
2021/09/11 04:16:21;;;;;;;12.00;5.53;;;17.90;99.90;;;;;;4948049;29;20770;-89
2021/09/11 04:18:47;;;;;;;15.97;5.93;;;17.90;99.90;;;;;;4948490;28;21059;-89
2021/09/11 04:21:12;;;;;;;9.50;6.67;;;17.90;99.90;;;;;;4948155;28;20292;-89
2021/09/11 04:23:38;;;;;;;11.97;6.27;;;17.90;99.90;;;;;;4948730;28;20228;-89
2021/09/11 04:26:04;;;;;;;11.27;6.10;;;17.90;99.90;;;;;;4947907;29;20221;-88
2021/09/11 04:28:29;;;;;;;14.50;5.20;;;18.00;99.90;;;;;;4948164;28;20237;-88
2021/09/11 04:30:55;;;;;;;9.63;5.57;;;18.00;99.90;;;;;;4947982;28;20863;-87
2021/09/11 04:33:21;;;;;;;11.97;6.00;;;18.00;99.90;;;;;;4963981;28;20197;-87
2021/09/11 04:35:47;;;;;;;10.43;5.97;;;18.00;99.90;;;;;;4949022;29;20201;-89
2021/09/11 04:38:12;;;;;;;9.33;5.40;;;18.00;99.90;;;;;;4947485;28;20229;-88
2021/09/11 04:40:38;;;;;;;10.60;6.30;;;18.00;99.90;;;;;;4963933;28;20469;-87
2021/09/11 04:43:07;;;;;;;13.87;6.33;;;18.00;99.90;;;;;;4947879;28;20741;-88
2021/09/11 04:45:33;;;;;;;11.97;6.00;;;17.90;99.90;;;;;;4948079;28;20228;-88
2021/09/11 04:47:59;;;;;;;17.03;6.90;;;18.00;99.90;;;;;;4950528;28;20211;-86
2021/09/11 04:50:25;;;;;;;16.20;6.67;;;18.00;99.90;;;;;;4951456;28;20220;-90
2021/09/11 04:52:51;;;;;;;12.73;7.23;;;18.00;99.90;;;;;;4950828;28;20304;-88
2021/09/11 04:55:16;;;;;;;8.77;5.57;;;18.00;99.90;;;;;;4966602;28;20212;-88
2021/09/11 04:57:42;;;;;;;13.53;5.67;;;17.90;99.90;;;;;;4951232;28;20212;-88
2021/09/11 05:00:09;;;;;;;17.03;7.37;;;18.00;99.90;;;;;;4967555;28;20601;-86
2021/09/11 05:02:34;;;;;;;13.60;5.40;;;18.00;99.90;;;;;;4951713;28;20224;-89
2021/09/11 05:05:00;;;;;;;10.53;5.73;;;18.00;99.90;;;;;;4950366;28;20247;-88
2021/09/11 05:07:26;;;;;;;11.40;5.73;;;18.00;99.90;;;;;;4965985;28;20255;-88
2021/09/11 05:09:52;;;;;;;12.03;5.27;;;18.00;99.90;;;;;;4949967;28;20228;-89
2021/09/11 05:12:18;;;;;;;12.90;5.77;;;18.00;99.90;;;;;;4962863;28;20227;-88
2021/09/11 05:14:44;;;;;;;12.20;6.23;;;18.00;99.90;;;;;;4947931;28;20192;-87
2021/09/11 05:17:09;;;;;;;12.27;6.50;;;18.00;99.90;;;;;;4947217;28;20223;-87
2021/09/11 05:19:35;;;;;;;12.83;6.53;;;18.00;99.90;;;;;;4964483;28;20254;-87
2021/09/11 05:22:01;;;;;;;12.37;6.53;;;18.00;99.90;;;;;;4950117;28;20584;-88
2021/09/11 05:24:27;;;;;;;12.27;5.90;;;18.00;99.90;;;;;;4950153;28;20283;-88
2021/09/11 05:26:52;;;;;;;11.10;5.47;;;18.10;99.90;;;;;;4935167;28;20220;-87
2021/09/11 05:29:18;;;;;;;12.97;6.27;;;18.10;99.90;;;;;;4950248;28;20229;-88
2021/09/11 05:31:44;;;;;;;11.13;6.20;;;18.10;99.90;;;;;;4949711;28;20232;-88
2021/09/11 05:34:10;;;;;;;13.93;5.73;;;18.10;99.90;;;;;;4948200;28;20737;-88
2021/09/11 05:36:35;;;;;;;10.90;6.27;;;18.10;99.90;;;;;;4946696;28;20678;-85
2021/09/11 05:39:02;;;;;;;12.47;5.70;;;18.10;99.90;;;;;;4916084;28;20216;-88
2021/09/11 05:41:28;;;;;;;7.00;4.50;;;18.10;99.90;;;;;;4962329;28;20222;-89
2021/09/11 05:43:54;;;;;;;13.93;4.80;;;18.10;99.90;;;;;;4963104;28;20216;-88
2021/09/11 05:46:20;;;;;;;12.47;5.40;;;18.10;99.90;;;;;;4916349;28;21182;-88
2021/09/11 05:48:46;;;;;;;8.13;4.83;;;18.20;99.90;;;;;;4949458;28;20248;-88
2021/09/11 05:51:11;;;;;;;10.77;6.00;;;18.20;99.90;;;;;;4965937;28;20203;-87
2021/09/11 05:53:37;;;;;;;12.27;5.50;;;18.20;99.90;;;;;;4966298;28;20291;-88
2021/09/11 05:56:03;;;;;;;22.63;5.20;;;18.30;99.90;;;;;;4963166;28;21018;-87
2021/09/11 05:58:29;;;;;;;11.90;5.90;;;18.30;99.90;;;;;;4962033;28;20706;-89
2021/09/11 06:00:56;;;;;;;7.40;5.33;;;18.40;99.90;;;;;;4945984;28;20216;-87
2021/09/11 06:03:22;;;;;;;16.90;7.17;;;18.40;99.90;;;;;;4948122;28;20534;-88
2021/09/11 06:05:48;;;;;;;15.00;6.80;;;18.50;99.90;;;;;;4949643;28;20706;-89
2021/09/11 06:08:14;;;;;;;12.33;5.73;;;18.50;99.90;;;;;;4949144;28;20216;-88
2021/09/11 06:10:40;;;;;;;6.93;4.77;;;18.50;99.90;;;;;;4950137;28;21214;-88
2021/09/11 06:13:06;;;;;;;10.33;5.93;;;18.50;99.90;;;;;;4950223;28;20343;-89
2021/09/11 06:15:32;;;;;;;11.13;5.67;;;18.50;99.90;;;;;;4949733;28;20232;-88
2021/09/11 06:17:58;;;;;;;11.00;5.47;;;18.50;99.90;;;;;;4949789;28;20324;-88
2021/09/11 06:20:23;;;;;;;12.37;5.67;;;18.60;99.90;;;;;;4949343;28;20251;-88
2021/09/11 06:22:49;;;;;;;10.87;5.47;;;18.60;99.90;;;;;;4949473;28;20303;-87
2021/09/11 06:25:15;;;;;;;17.70;7.27;;;18.60;99.90;;;;;;4948829;28;20244;-89
2021/09/11 06:27:41;;;;;;;14.63;6.13;;;18.60;99.90;;;;;;4948883;28;20696;-90
2021/09/11 06:30:09;;;;;;;11.27;5.30;;;18.60;99.90;;;;;;4949547;28;20191;-88
2021/09/11 06:32:35;;;;;;;12.00;5.87;;;18.60;99.90;;;;;;4965418;28;20246;-86
2021/09/11 06:35:01;;;;;;;15.03;5.67;;;18.60;99.90;;;;;;4948827;28;20319;-87
2021/09/11 06:37:27;;;;;;;9.57;4.97;;;18.60;99.90;;;;;;4949159;28;20271;-85
2021/09/11 06:39:52;;;;;;;13.13;6.30;;;18.70;99.90;;;;;;4949131;28;20220;-86
2021/09/11 06:42:19;;;;;;;13.70;6.53;;;18.70;99.90;;;;;;4948965;28;20647;-86
2021/09/11 06:44:47;;;;;;;11.07;6.10;;;18.70;99.90;;;;;;4949524;28;20205;-85
2021/09/11 06:47:13;;;;;;;19.97;6.13;;;18.70;99.90;;;;;;4948225;28;20258;-85
2021/09/11 06:49:39;;;;;;;8.80;5.47;;;18.80;99.90;;;;;;4964480;28;20228;-86
2021/09/11 06:52:05;;;;;;;14.07;6.23;;;18.80;99.90;;;;;;4964113;28;20299;-87
2021/09/11 06:54:31;;;;;;;10.73;5.63;;;18.70;99.90;;;;;;4949504;28;20227;-87
2021/09/11 06:56:56;;;;;;;9.53;6.47;;;18.80;99.90;;;;;;4953280;28;20188;-88
2021/09/11 06:59:22;;;;;;;14.53;5.67;;;18.80;99.90;;;;;;4952706;28;20235;-85
2021/09/11 07:01:48;;;;;;;18.70;6.17;;;18.80;99.90;;;;;;4952840;28;20228;-90
2021/09/11 07:04:14;;;;;;;9.37;5.33;;;18.80;99.90;;;;;;4937215;28;20344;-87
2021/09/11 07:06:40;;;;;;;14.50;6.37;;;18.80;99.90;;;;;;4951947;28;20363;-87
2021/09/11 07:09:05;;;;;;;9.70;5.30;;;18.80;99.90;;;;;;4953617;28;20193;-86
2021/09/11 07:11:31;;;;;;;9.33;5.93;;;18.80;99.90;;;;;;4952979;28;20685;-87
2021/09/11 07:13:57;;;;;;;14.90;6.67;;;18.90;99.90;;;;;;4952861;28;20628;-87
2021/09/11 07:16:23;;;;;;;14.37;6.03;;;19.00;99.90;;;;;;4953350;28;20228;-86
2021/09/11 07:18:49;;;;;;;12.17;6.83;;;19.00;99.90;;;;;;4953141;28;20962;-86
2021/09/11 07:21:14;;;;;;;10.77;5.90;;;19.00;99.90;;;;;;4945019;28;20271;-88
2021/09/11 07:23:40;;;;;;;11.40;5.77;;;19.10;99.90;;;;;;4951233;28;20235;-89
2021/09/11 07:26:06;;;;;;;9.17;6.23;;;19.10;99.90;;;;;;4920547;28;20621;-87
2021/09/11 07:28:32;;;;;;;14.67;6.00;;;19.10;99.90;;;;;;4952397;28;21048;-89
2021/09/11 07:30:57;;;;;;;12.33;5.70;;;19.10;99.90;;;;;;4952466;28;20753;-86
2021/09/11 07:33:23;;;;;;;29.60;6.93;;;19.10;99.90;;;;;;4968976;28;20607;-89
2021/09/11 07:35:49;;;;;;;19.77;7.83;;;19.10;99.90;;;;;;4968198;28;20207;-87
2021/09/11 07:38:15;;;;;;;10.73;5.83;;;19.10;99.90;;;;;;4951313;28;20324;-86
2021/09/11 07:40:44;;;;;;;14.40;5.53;;;19.10;99.90;;;;;;4968022;28;21017;-90
2021/09/11 07:43:11;;;;;;;10.83;6.43;;;19.10;99.90;;;;;;4967681;28;20283;-87
2021/09/11 07:45:42;;;;;;;18.50;5.87;;;19.10;99.90;;;;;;4950996;28;20224;-89
2021/09/11 07:48:08;;;;;;;14.00;6.83;;;19.10;99.90;;;;;;4952277;28;20192;-88
2021/09/11 07:50:37;;;;;;;11.87;6.60;;;19.10;99.90;;;;;;4952038;28;20223;-87
2021/09/11 07:53:04;;;;;;;12.90;5.93;;;19.10;99.90;;;;;;4952240;28;20228;-88
2021/09/11 07:55:31;;;;;;;17.17;7.63;;;19.10;99.90;;;;;;4952531;28;20291;-87
2021/09/11 07:57:57;;;;;;;11.60;6.03;;;19.00;99.90;;;;;;4935945;28;20220;-89
2021/09/11 08:00:24;;;;;;;15.23;6.93;;;19.00;99.90;;;;;;4951257;28;21145;-86
2021/09/11 08:02:50;;;;;;;11.27;5.60;;;18.90;99.90;;;;;;4952530;28;21161;-91
2021/09/11 08:05:15;;;;;;;13.17;6.27;;;19.00;99.90;;;;;;4951861;28;20221;-87
2021/09/11 08:07:42;;;;;;;14.37;6.40;;;19.00;99.90;;;;;;4966752;28;20731;-87
2021/09/11 08:10:08;;;;;;;11.30;6.13;;;19.00;99.90;;;;;;4966969;28;20356;-91
2021/09/11 08:12:34;;;;;;;12.03;7.63;;;19.00;99.90;;;;;;4952342;28;20228;-89
2021/09/11 08:15:01;;;;;;;9.40;5.60;;;19.00;99.90;;;;;;4951189;28;20820;-89
2021/09/11 08:17:27;;;;;;;10.63;5.87;;;19.00;99.90;;;;;;4951064;28;20707;-87
2021/09/11 08:19:52;;;;;;;11.90;6.07;;;19.10;99.90;;;;;;4967119;28;20380;-87
2021/09/11 08:22:18;;;;;;;12.87;6.57;;;19.00;99.90;;;;;;4951909;28;20263;-86
2021/09/11 08:24:44;;;;;;;10.30;6.53;;;19.00;99.90;;;;;;4951469;28;20271;-87
2021/09/11 08:27:10;;;;;;;15.80;7.27;;;19.10;99.90;;;;;;4951304;28;20465;-90
2021/09/11 08:29:36;;;;;;;16.70;7.17;;;19.10;99.90;;;;;;4952350;28;20217;-87
2021/09/11 08:32:05;;;;;;;15.70;6.93;;;19.10;99.90;;;;;;4951033;28;20217;-89
2021/09/11 08:34:30;;;;;;;9.90;6.80;;;19.10;99.90;;;;;;4951381;28;20224;-88
2021/09/11 08:36:56;;;;;;;12.93;7.23;;;19.10;99.90;;;;;;4952112;28;20212;-90
2021/09/11 08:39:24;;;;;;;11.57;6.87;;;19.10;99.90;;;;;;4951061;28;20208;-90
2021/09/11 08:41:54;;;;;;;13.17;6.67;;;19.10;99.90;;;;;;4951732;28;20193;-89
2021/09/11 08:44:20;;;;;;;12.93;7.30;;;19.10;99.90;;;;;;4951133;28;20252;-94
2021/09/11 08:46:48;;;;;;;13.47;7.87;;;19.10;99.90;;;;;;4967857;28;20334;-89
2021/09/11 08:49:15;;;;;;;18.40;8.17;;;19.10;99.90;;;;;;4951693;28;20232;-89
2021/09/11 08:51:41;;;;;;;10.37;6.50;;;19.20;99.90;;;;;;4967531;28;20224;-88
2021/09/11 08:54:07;;;;;;;20.17;8.03;;;19.20;99.90;;;;;;4951820;28;20273;-90
2021/09/11 08:56:40;;;;;;;15.83;6.30;;;19.30;99.90;;;;;;4951287;28;20225;-90
2021/09/11 08:59:10;;;;;;;18.17;9.00;;;19.40;99.90;;;;;;4944507;28;20217;-89
2021/09/11 09:01:37;;;;;;;12.20;7.27;;;19.40;99.90;;;;;;4925092;28;20244;-89
2021/09/11 09:04:03;;;;;;;16.17;7.97;;;19.50;99.90;;;;;;4966472;28;20232;-88
2021/09/11 09:06:34;;;;;;;13.17;8.03;;;19.60;99.90;;;;;;4950590;28;20220;-91
2021/09/11 09:09:09;;;;;;;14.27;7.93;;;19.70;99.90;;;;;;4951570;28;21138;-90
2021/09/11 09:11:40;;;;;;;17.57;7.93;;;19.70;99.90;;;;;;4968531;28;20212;-91
2021/09/11 09:14:16;;;;;;;14.53;8.10;;;19.90;99.90;;;;;;4966544;28;20212;-87
2021/09/11 09:16:50;;;;;;;16.03;7.20;;;19.80;99.90;;;;;;4950857;28;20577;-87
2021/09/11 09:19:18;;;;;;;13.10;7.03;;;19.80;99.90;;;;;;4944476;28;20224;-88
2021/09/11 09:21:47;;;;;;;17.53;7.33;;;19.80;99.90;;;;;;4950963;28;20799;-88
2021/09/11 09:24:25;;;;;;;10.50;6.70;;;19.90;99.90;;;;;;4950486;28;20189;-90
2021/09/11 09:26:53;;;;;;;11.73;7.80;;;19.70;99.90;;;;;;4951287;28;20234;-87
2021/09/11 09:29:21;;;;;;;13.53;5.37;;;19.80;99.90;;;;;;4934371;28;20241;-88
2021/09/11 09:31:49;;;;;;;10.73;6.53;;;19.80;99.90;;;;;;4951315;28;20592;-90
2021/09/11 09:34:50;;;;;;;10.77;5.47;;;19.80;99.90;;;;;;4934524;28;20224;-89
2021/09/11 09:37:18;;;;;;;13.37;6.97;;;20.00;99.90;;;;;;4899822;28;20299;-89
2021/09/11 09:39:48;;;;;;;11.83;6.20;;;20.20;99.90;;;;;;4951358;28;20231;-91
2021/09/11 09:42:15;;;;;;;13.93;6.53;;;20.30;99.90;;;;;;4965940;28;20223;-89
2021/09/11 09:44:46;;;;;;;16.70;7.37;;;20.60;99.90;;;;;;4967252;28;20217;-88
2021/09/11 09:47:14;;;;;;;14.87;6.00;;;20.80;99.90;;;;;;4951321;28;20252;-89
2021/09/11 09:49:40;;;;;;;14.03;7.20;;;20.80;99.90;;;;;;4950107;28;20224;-90
2021/09/11 09:52:06;;;;;;;9.00;6.13;;;20.60;99.90;;;;;;4940017;28;20231;-89
2021/09/11 09:54:32;;;;;;;11.80;6.47;;;20.40;99.90;;;;;;4949857;28;20224;-91
2021/09/11 09:56:58;;;;;;;17.63;6.30;;;20.20;99.90;;;;;;4951195;28;20196;-89
2021/09/11 09:59:25;;;;;;;9.23;5.47;;;20.10;99.90;;;;;;4966737;28;20216;-90
2021/09/11 10:01:51;;;;;;;10.57;6.77;;;20.00;99.90;;;;;;4966444;28;20223;-89
2021/09/11 10:04:22;;;;;;;12.80;6.90;;;20.10;99.90;;;;;;4950616;28;20224;-88
2021/09/11 10:06:59;;;;;;;14.07;7.57;;;20.10;99.90;;;;;;4951174;28;20349;-89
2021/09/11 10:09:27;;;;;;;15.87;6.93;;;20.20;99.90;;;;;;4950920;28;20186;-91
2021/09/11 10:11:53;;;;;;;10.70;6.53;;;20.20;99.90;;;;;;4950590;28;20199;-91
2021/09/11 10:14:22;;;;;;;10.77;6.63;;;20.30;99.90;;;;;;4950267;28;20224;-92
2021/09/11 10:17:03;;;;;;;9.77;6.20;;;20.10;99.90;;;;;;4950200;28;20777;-89
2021/09/11 10:19:31;;;;;;;8.60;4.87;;;20.30;99.90;;;;;;4948938;28;20303;-87
2021/09/11 10:22:15;;;;;;;11.03;5.97;;;20.30;99.90;;;;;;4966972;28;20232;-89
2021/09/11 10:24:40;;;;;;;14.47;5.97;;;20.30;99.90;;;;;;4966287;28;20255;-88
2021/09/11 10:27:24;;;;;;;9.20;4.83;;;20.40;99.90;;;;;;4942684;28;20300;-89
2021/09/11 10:29:52;;;;;;;13.50;6.57;;;20.40;99.90;;;;;;4968325;28;20220;-89
2021/09/11 10:32:23;;;;;;;12.17;6.33;;;20.60;99.90;;;;;;4969552;28;20263;-90
2021/09/11 10:35:00;;;;;;;8.97;5.10;;;20.70;99.90;;;;;;4969948;28;20236;-91
2021/09/11 10:37:47;;;;;;;9.73;5.90;;;20.70;99.90;;;;;;4985399;28;20224;-91
2021/09/11 10:40:33;;;;;;;8.50;5.00;;;20.80;99.90;;;;;;4984863;28;20212;-89
2021/09/11 10:43:03;;;;;;;10.13;5.37;;;20.90;99.90;;;;;;4967249;28;20213;-89
2021/09/11 10:45:38;;;;;;;11.73;5.90;;;20.90;99.90;;;;;;4983319;28;21832;-88
2021/09/11 10:48:06;;;;;;;8.33;5.40;;;21.00;99.90;;;;;;4930649;28;20216;-88
2021/09/11 10:50:39;;;;;;;9.30;6.33;;;21.40;99.90;;;;;;4930395;29;20316;-88
2021/09/11 10:53:22;;;;;;;13.93;5.47;;;21.70;99.90;;;;;;4931352;29;20785;-90
2021/09/11 10:55:48;;;;;;;9.40;4.53;;;22.30;99.90;;;;;;4930881;28;20260;-89
2021/09/11 10:58:21;;;;;;;9.97;5.30;;;22.40;99.90;;;;;;4930233;29;20233;-88
2021/09/11 11:01:01;;;;;;;9.00;5.40;;;22.30;99.90;;;;;;4931052;29;20226;-89
2021/09/11 11:03:27;;;;;;;5.37;4.37;;;22.20;99.90;;;;;;4931124;28;21104;-88
2021/09/11 11:06:01;;;;;;;8.87;5.30;;;21.90;99.90;;;;;;4932114;29;20204;-90
2021/09/11 11:08:31;;;;;;;12.80;5.47;;;21.60;99.90;;;;;;4929822;29;21435;-89
2021/09/11 11:10:58;;;;;;;7.43;5.10;;;21.50;99.90;;;;;;4929979;29;20213;-91
2021/09/11 11:13:24;;;;;;;7.20;5.03;;;21.50;99.90;;;;;;4930236;29;20225;-88
2021/09/11 11:15:57;;;;;;;9.60;6.13;;;21.60;99.90;;;;;;4929733;29;20364;-90
2021/09/11 11:18:27;;;;;;;10.20;5.67;;;21.80;99.90;;;;;;4929586;28;20197;-89
2021/09/11 11:20:54;;;;;;;11.63;6.83;;;21.70;99.90;;;;;;4933011;29;20277;-90
2021/09/11 11:23:21;;;;;;;8.27;4.93;;;21.90;99.90;;;;;;4913842;29;20210;-87
2021/09/11 11:25:50;;;;;;;11.43;5.87;;;21.70;99.90;;;;;;4945877;28;20210;-87
2021/09/11 11:28:17;;;;;;;14.48;6.05;;;21.70;99.90;;;;;;4929035;29;20313;-88
2021/09/11 11:30:44;;;;;;;10.80;6.83;;;21.70;99.90;;;;;;4929935;29;20222;-86
2021/09/11 11:33:10;;;;;;;8.43;5.73;;;21.50;99.90;;;;;;4945558;28;20264;-87
2021/09/11 11:35:41;;;;;;;12.93;6.50;;;21.50;99.90;;;;;;4930890;29;20664;-89
2021/09/11 11:38:07;;;;;;;9.37;6.27;;;21.40;99.90;;;;;;4929342;29;20551;-87
2021/09/11 11:40:33;;;;;;;9.63;6.07;;;21.40;99.90;;;;;;4929489;29;20253;-89
2021/09/11 11:43:06;;;;;;;10.00;6.00;;;21.50;99.90;;;;;;4945443;28;20218;-88
2021/09/11 11:45:33;;;;;;;8.70;5.87;;;21.50;99.90;;;;;;4923745;28;20225;-88
2021/09/11 11:48:06;;;;;;;14.50;7.00;;;21.60;99.90;;;;;;4984443;28;20208;-88
2021/09/11 11:50:37;;;;;;;12.50;6.30;;;21.50;99.90;;;;;;4968115;28;20320;-89
2021/09/11 11:53:07;;;;;;;13.67;6.63;;;21.40;99.90;;;;;;4967765;28;20228;-85
2021/09/11 11:55:35;;;;;;;13.23;6.13;;;21.10;99.90;;;;;;4982022;28;20236;-82
2021/09/11 11:58:22;;;;;;;14.90;5.63;;;21.00;99.90;;;;;;4982490;28;20694;-85
2021/09/11 12:00:53;;;;;;;10.03;4.93;;;21.00;99.90;;;;;;4966720;28;20224;-86
2021/09/11 12:03:40;;;;;;;11.53;6.23;;;20.70;99.90;;;;;;4967745;28;20193;-85
2021/09/11 12:06:25;;;;;;;13.17;6.90;;;20.60;99.90;;;;;;4984086;28;20204;-86
2021/09/11 12:08:51;;;;;;;11.50;6.47;;;20.60;99.90;;;;;;4967573;28;20216;-87
2021/09/11 12:11:18;;;;;;;19.13;7.10;;;20.70;99.90;;;;;;4967284;28;20208;-86
2021/09/11 12:13:47;;;;;;;15.77;8.10;;;20.80;99.90;;;;;;4968729;28;20250;-87
2021/09/11 12:16:14;;;;;;;14.13;6.23;;;20.80;99.90;;;;;;4983923;28;20248;-83
2021/09/11 12:18:40;;;;;;;15.17;6.50;;;20.80;99.90;;;;;;4968888;28;20224;-87
2021/09/11 12:21:10;;;;;;;13.00;6.73;;;20.70;99.90;;;;;;4967828;28;20193;-88
2021/09/11 12:23:38;;;;;;;12.27;7.17;;;21.00;99.90;;;;;;4966421;28;20243;-87
2021/09/11 12:26:08;;;;;;;20.83;8.67;;;21.20;99.90;;;;;;4950703;28;20597;-90
2021/09/11 12:28:39;;;;;;;13.70;6.30;;;21.30;99.90;;;;;;4967142;28;20228;-86
2021/09/11 12:31:26;;;;;;;16.40;6.93;;;21.30;99.90;;;;;;4967058;28;20217;-86
2021/09/11 12:33:54;;;;;;;16.97;8.43;;;21.30;99.90;;;;;;4967222;28;20231;-88
2021/09/11 12:36:22;;;;;;;15.30;7.27;;;21.20;99.90;;;;;;4982532;28;20192;-86
2021/09/11 12:38:50;;;;;;;11.27;6.93;;;21.20;99.90;;;;;;4967419;28;20192;-86